Time;durP1;ratioP1;P1;durP2;ratioP2;P2;SDS_P1;SDS_P2;PMS_P1;PMS_P2;Temp;Humidity;BMP_temperature;BMP_pressure;BME280_temperature;BME280_humidity;BME280_pressure;Samples;Min_cycle;Max_cycle;Signal;HPM_P1;HPM_P2
2022/09/18 00:00:15;;;;;;;1.70;1.60;;;;;;;8.94;100.00;99725.91;4951805;28;20199;-73
2022/09/18 00:02:41;;;;;;;1.50;1.40;;;;;;;9.00;100.00;99725.69;4951331;28;20544;-72
2022/09/18 00:05:09;;;;;;;3.50;1.50;;;;;;;8.98;100.00;99731.84;4948962;28;20579;-73
2022/09/18 00:07:36;;;;;;;3.57;1.63;;;;;;;9.01;100.00;99726.56;4963884;28;20222;-73
2022/09/18 00:10:03;;;;;;;5.27;1.80;;;;;;;9.03;100.00;99728.19;4948159;28;20228;-73
2022/09/18 00:12:30;;;;;;;2.70;1.60;;;;;;;9.01;100.00;99730.00;4948656;28;20317;-72
2022/09/18 00:14:56;;;;;;;3.17;1.50;;;;;;;9.05;100.00;99731.59;4945093;28;20195;-72
2022/09/18 00:17:22;;;;;;;1.37;1.27;;;;;;;9.04;100.00;99727.31;4950568;28;20239;-73
2022/09/18 00:19:49;;;;;;;5.30;1.40;;;;;;;9.02;100.00;99725.63;4944381;28;20203;-73
2022/09/18 00:22:15;;;;;;;2.03;1.30;;;;;;;9.03;100.00;99732.56;4951384;28;20220;-72
2022/09/18 00:24:43;;;;;;;2.10;1.87;;;;;;;9.04;100.00;99722.09;4948331;28;20204;-72
2022/09/18 00:27:09;;;;;;;1.87;1.50;;;;;;;9.08;100.00;99720.25;4950216;28;20255;-74
2022/09/18 00:29:35;;;;;;;2.30;1.70;;;;;;;9.10;100.00;99727.06;4948807;28;20268;-72
2022/09/18 00:32:02;;;;;;;2.47;1.80;;;;;;;9.08;100.00;99723.69;4962865;28;20206;-74
2022/09/18 00:34:28;;;;;;;3.10;1.73;;;;;;;9.08;100.00;99728.03;4947813;28;20235;-74
2022/09/18 00:36:54;;;;;;;4.77;2.00;;;;;;;9.06;100.00;99732.47;4946717;28;20224;-73
2022/09/18 00:39:21;;;;;;;2.33;1.70;;;;;;;9.06;100.00;99732.47;4947827;28;20210;-74
2022/09/18 00:41:48;;;;;;;2.03;1.87;;;;;;;9.02;100.00;99738.63;4946853;28;20210;-73
2022/09/18 00:44:38;;;;;;;2.70;1.83;;;;;;;9.07;100.00;99731.53;4963478;28;20686;-74
2022/09/18 00:47:15;;;;;;;2.23;1.83;;;;;;;9.09;100.00;99732.31;4946726;28;20216;-74
2022/09/18 00:49:45;;;;;;;2.00;1.67;;;;;;;9.13;100.00;99725.28;4957884;28;20206;-73
2022/09/18 00:52:14;;;;;;;4.10;1.60;;;;;;;9.15;100.00;99726.09;4947087;28;20199;-74
2022/09/18 00:54:44;;;;;;;2.80;1.60;;;;;;;9.19;100.00;99725.91;4944494;28;20210;-73
2022/09/18 00:57:16;;;;;;;3.40;1.87;;;;;;;9.29;100.00;99722.09;4959539;28;20707;-73
2022/09/18 00:59:44;;;;;;;2.47;1.70;;;;;;;9.28;100.00;99724.75;4963743;28;20307;-73
2022/09/18 01:02:12;;;;;;;2.07;1.57;;;;;;;9.32;100.00;99725.47;4949903;28;20200;-73
2022/09/18 01:04:39;;;;;;;3.17;1.90;;;;;;;9.32;100.00;99723.72;4963162;28;20290;-72
2022/09/18 01:07:14;;;;;;;3.63;1.87;;;;;;;9.32;100.00;99730.69;4957379;28;20230;-73
2022/09/18 01:09:48;;;;;;;3.43;1.73;;;;;;;9.37;100.00;99726.16;4962002;28;20258;-74
2022/09/18 01:12:28;;;;;;;2.87;1.90;;;;;;;9.44;100.00;99725.03;4966304;28;20195;-73
2022/09/18 01:15:02;;;;;;;2.33;2.03;;;;;;;9.40;100.00;99721.72;4959069;28;20211;-72
2022/09/18 01:17:35;;;;;;;4.23;1.93;;;;;;;9.39;100.00;99721.75;4947004;28;20307;-74
2022/09/18 01:20:26;;;;;;;1.97;1.77;;;;;;;9.41;100.00;99722.53;4948840;28;20474;-72
2022/09/18 01:23:09;;;;;;;2.37;1.80;;;;;;;9.44;100.00;99727.66;4962833;28;20210;-74
2022/09/18 01:25:45;;;;;;;3.80;1.87;;;;;;;9.43;100.00;99724.22;4960308;28;20207;-74
2022/09/18 01:28:21;;;;;;;1.83;1.73;;;;;;;9.45;100.00;99725.00;4963472;28;20233;-72
2022/09/18 01:30:50;;;;;;;3.17;1.90;;;;;;;9.41;100.00;99725.16;4964058;28;20202;-73
2022/09/18 01:33:25;;;;;;;2.13;1.87;;;;;;;9.37;100.00;99728.78;4958436;28;20210;-73
2022/09/18 01:35:57;;;;;;;2.33;1.83;;;;;;;9.32;100.00;99728.09;4944702;28;20227;-73
2022/09/18 01:38:29;;;;;;;1.80;1.53;;;;;;;9.28;100.00;99727.34;4950365;28;20286;-73
2022/09/18 01:41:00;;;;;;;1.70;1.60;;;;;;;9.31;100.00;99731.59;4957264;28;20210;-74
2022/09/18 01:43:32;;;;;;;1.83;1.67;;;;;;;9.27;100.00;99733.47;4960925;28;20446;-74
2022/09/18 01:46:06;;;;;;;2.13;1.77;;;;;;;9.27;100.00;99725.66;4957881;28;20288;-73
2022/09/18 01:48:38;;;;;;;1.63;1.43;;;;;;;9.31;100.00;99735.06;4955579;28;20984;-73
2022/09/18 01:51:10;;;;;;;1.37;1.27;;;;;;;9.32;100.00;99728.09;4959506;28;20204;-73
2022/09/18 01:53:41;;;;;;;2.60;1.60;;;;;;;9.34;100.00;99726.28;4956396;28;20212;-73
2022/09/18 01:56:13;;;;;;;2.47;1.67;;;;;;;9.34;100.00;99729.75;4958055;28;20312;-73
2022/09/18 02:01:14;;;;;;;3.50;1.57;;;;;;;9.32;100.00;99723.72;4997607;28;20225;-73
2022/09/18 02:03:45;;;;;;;1.53;1.40;;;;;;;9.28;100.00;99730.78;4996283;28;20252;-72
2022/09/18 02:06:16;;;;;;;2.40;1.50;;;;;;;9.31;100.00;99723.81;5002533;28;20203;-73
2022/09/18 02:08:46;;;;;;;1.40;1.30;;;;;;;9.33;100.00;99728.03;5000445;28;20225;-73
2022/09/18 02:11:16;;;;;;;2.60;1.27;;;;;;;9.34;100.00;99732.34;4981513;28;20731;-72
2022/09/18 02:13:48;;;;;;;1.50;1.40;;;;;;;9.32;100.00;99726.31;4984863;28;20301;-73
2022/09/18 02:16:23;;;;;;;1.70;1.17;;;;;;;9.34;100.00;99726.28;4971644;28;20229;-73
2022/09/18 02:18:53;;;;;;;1.97;1.10;;;;;;;9.28;100.00;99727.34;4981613;28;20686;-73
2022/09/18 02:21:25;;;;;;;1.77;1.13;;;;;;;9.27;100.00;99721.31;4994819;28;20242;-72
2022/09/18 02:23:55;;;;;;;0.83;0.83;;;;;;;9.27;100.00;99730.88;5001300;28;20545;-72
2022/09/18 02:26:22;;;;;;;0.70;0.70;;;;;;;9.23;100.00;99729.25;5002605;28;20193;-72
2022/09/18 02:28:53;;;;;;;2.20;0.80;;;;;;;9.29;100.00;99729.91;5001831;28;20730;-71
2022/09/18 02:31:20;;;;;;;0.90;0.90;;;;;;;9.23;100.00;99730.13;5002346;28;20399;-71
2022/09/18 02:33:47;;;;;;;0.93;0.80;;;;;;;9.22;100.00;99725.81;4998594;28;20276;-72
2022/09/18 02:36:37;;;;;;;3.13;0.73;;;;;;;9.20;100.00;99727.63;4978533;28;20222;-72
2022/09/18 02:39:15;;;;;;;0.70;0.70;;;;;;;9.18;100.00;99728.56;4988573;28;20538;-72
2022/09/18 02:41:49;;;;;;;0.70;0.70;;;;;;;9.19;100.00;99732.88;4988075;28;20229;-73
2022/09/18 02:44:20;;;;;;;0.70;0.70;;;;;;;9.17;100.00;99729.47;4986705;28;20194;-72
2022/09/18 02:47:00;;;;;;;0.70;0.70;;;;;;;9.14;100.00;99730.41;4985169;28;20202;-72
2022/09/18 02:49:39;;;;;;;0.60;0.60;;;;;;;9.12;100.00;99740.03;4984793;28;20236;-73
2022/09/18 02:52:13;;;;;;;0.60;0.60;;;;;;;9.12;100.00;99737.44;5005384;28;20226;-73
2022/09/18 02:54:45;;;;;;;0.70;0.60;;;;;;;9.13;100.00;99733.94;5002947;28;20228;-73
2022/09/18 02:57:18;;;;;;;0.73;0.70;;;;;;;9.08;100.00;99741.88;4988071;28;20244;-73
2022/09/18 02:59:50;;;;;;;1.33;0.77;;;;;;;9.09;100.00;99735.81;4988191;28;20724;-71
2022/09/18 03:02:21;;;;;;;1.00;0.60;;;;;;;9.07;100.00;99742.78;5006004;28;20210;-72
2022/09/18 03:04:48;;;;;;;0.50;0.50;;;;;;;9.07;100.00;99740.19;5000587;28;20638;-72
2022/09/18 03:07:26;;;;;;;0.97;0.67;;;;;;;9.03;100.00;99737.75;4999506;28;20244;-73
2022/09/18 03:09:54;;;;;;;0.60;0.60;;;;;;;9.04;100.00;99744.63;5001769;28;20197;-72
2022/09/18 03:12:21;;;;;;;0.50;0.50;;;;;;;9.11;100.00;99743.53;5003382;28;20201;-72
2022/09/18 03:14:48;;;;;;;2.10;0.93;;;;;;;9.09;100.00;99751.41;5006923;28;20218;-72
2022/09/18 03:17:14;;;;;;;0.73;0.73;;;;;;;9.06;100.00;99750.66;5000135;28;20225;-72
2022/09/18 03:19:45;;;;;;;0.50;0.50;;;;;;;9.08;100.00;99760.09;4998123;28;20200;-72
2022/09/18 03:22:12;;;;;;;1.40;0.80;;;;;;;9.04;100.00;99761.09;4986020;28;20205;-71
2022/09/18 03:24:39;;;;;;;0.40;0.40;;;;;;;9.03;100.00;99767.19;4985485;28;20199;-72
2022/09/18 03:27:06;;;;;;;0.50;0.50;;;;;;;9.02;100.00;99770.72;5001309;28;20605;-72
2022/09/18 03:29:33;;;;;;;0.80;0.70;;;;;;;9.01;100.00;99766.41;4989097;28;20207;-72
2022/09/18 03:32:02;;;;;;;0.60;0.60;;;;;;;9.00;100.00;99769.03;4990795;28;20573;-72
2022/09/18 03:34:34;;;;;;;1.27;0.70;;;;;;;9.04;100.00;99768.03;5004772;28;20255;-72
2022/09/18 03:37:02;;;;;;;1.33;0.77;;;;;;;9.00;100.00;99767.28;4991193;28;20228;-72
2022/09/18 03:39:29;;;;;;;0.70;0.70;;;;;;;8.94;100.00;99767.50;4992607;28;20228;-73
2022/09/18 03:41:57;;;;;;;0.80;0.80;;;;;;;9.02;100.00;99780.25;4984105;28;20234;-72
2022/09/18 03:44:23;;;;;;;0.80;0.70;;;;;;;8.97;100.00;99774.34;4999175;28;20203;-72
2022/09/18 03:46:49;;;;;;;0.70;0.70;;;;;;;8.96;100.00;99770.91;4987308;28;20316;-72
2022/09/18 03:49:19;;;;;;;1.27;0.80;;;;;;;8.96;100.00;99780.47;5000489;28;20228;-72
2022/09/18 03:51:45;;;;;;;0.80;0.70;;;;;;;8.96;100.00;99776.09;4987654;28;20697;-72
2022/09/18 03:54:14;;;;;;;0.83;0.77;;;;;;;8.94;100.00;99771.88;4998463;28;20202;-71
2022/09/18 03:57:03;;;;;;;0.90;0.90;;;;;;;8.95;100.00;99781.34;4987876;28;20217;-71
2022/09/18 03:59:56;;;;;;;4.23;0.87;;;;;;;8.99;100.00;99781.22;4977730;28;20585;-72
2022/09/18 04:02:41;;;;;;;1.00;0.90;;;;;;;8.95;100.00;99792.59;5000569;28;20207;-72
2022/09/18 04:05:26;;;;;;;0.80;0.80;;;;;;;8.96;100.00;99796.06;4998105;28;20576;-72
2022/09/18 04:08:11;;;;;;;2.57;1.10;;;;;;;8.98;100.00;99792.50;5005622;28;20232;-73
2022/09/18 04:10:57;;;;;;;0.80;0.80;;;;;;;8.97;100.00;99800.34;5008020;28;20207;-72
2022/09/18 04:13:24;;;;;;;1.07;0.97;;;;;;;9.00;100.00;99805.44;5002758;28;20235;-72
2022/09/18 04:15:51;;;;;;;0.80;0.80;;;;;;;8.98;100.00;99800.28;4984608;28;20193;-73
2022/09/18 04:18:17;;;;;;;0.83;0.83;;;;;;;8.94;100.00;99803.91;5008462;28;20231;-72
2022/09/18 04:20:44;;;;;;;1.23;1.13;;;;;;;8.97;100.00;99806.41;4986346;28;20185;-72
2022/09/18 04:23:13;;;;;;;1.03;0.80;;;;;;;8.97;100.00;99806.41;4999835;28;20286;-72
2022/09/18 04:25:42;;;;;;;0.93;0.87;;;;;;;8.98;100.00;99813.28;4999970;28;20275;-72
2022/09/18 04:28:10;;;;;;;5.20;0.90;;;;;;;8.93;100.00;99816.94;5003402;28;20648;-73
2022/09/18 04:30:41;;;;;;;2.80;0.90;;;;;;;8.93;100.00;99824.75;4983177;28;20198;-72
2022/09/18 04:33:07;;;;;;;1.37;0.90;;;;;;;8.92;100.00;99826.50;5001248;28;20278;-72
2022/09/18 04:35:34;;;;;;;1.13;0.87;;;;;;;8.92;100.00;99821.31;4984940;28;20198;-72
2022/09/18 04:38:00;;;;;;;2.17;1.20;;;;;;;8.89;100.00;99831.81;4998162;28;20311;-72
2022/09/18 04:40:27;;;;;;;1.37;1.00;;;;;;;8.95;100.00;99831.59;4996153;28;20198;-72
2022/09/18 04:42:53;;;;;;;2.80;1.20;;;;;;;8.89;100.00;99843.03;4984922;28;20307;-72
2022/09/18 04:45:21;;;;;;;1.17;0.97;;;;;;;8.88;100.00;99841.34;4979462;28;20647;-72
2022/09/18 04:47:48;;;;;;;2.60;1.10;;;;;;;8.88;100.00;99836.16;4984282;28;20589;-72
2022/09/18 04:50:18;;;;;;;2.90;0.93;;;;;;;8.89;100.00;99840.44;4982983;28;20628;-72
2022/09/18 04:53:09;;;;;;;1.10;1.00;;;;;;;8.87;100.00;99844.84;4987246;28;20205;-71
2022/09/18 04:55:36;;;;;;;6.27;1.30;;;;;;;8.86;100.00;99856.13;5000677;28;20760;-72
2022/09/18 04:58:02;;;;;;;2.27;1.20;;;;;;;8.86;100.00;99858.72;4988461;28;20453;-72
2022/09/18 05:00:31;;;;;;;5.13;1.80;;;;;;;8.83;100.00;99856.25;5000726;28;20467;-72
2022/09/18 05:03:00;;;;;;;2.40;1.70;;;;;;;8.88;100.00;99866.47;4984236;28;20202;-71
2022/09/18 05:05:29;;;;;;;2.70;1.30;;;;;;;8.85;100.00;99866.59;4996972;28;20201;-72
2022/09/18 05:07:58;;;;;;;2.90;1.40;;;;;;;8.84;100.00;99870.94;4984922;28;20254;-72
2022/09/18 05:10:24;;;;;;;1.47;1.37;;;;;;;8.82;100.00;99877.94;4980635;28;20216;-72
2022/09/18 05:12:51;;;;;;;3.70;1.60;;;;;;;8.76;100.00;99872.94;4986519;28;20208;-72
2022/09/18 05:15:17;;;;;;;3.50;1.50;;;;;;;8.80;100.00;99876.28;4994652;28;20248;-73
2022/09/18 05:17:48;;;;;;;2.10;1.37;;;;;;;8.78;100.00;99878.94;4983913;28;20225;-72
2022/09/18 05:20:15;;;;;;;5.33;1.60;;;;;;;8.80;100.00;99879.72;4998568;28;20197;-73
2022/09/18 05:22:44;;;;;;;11.27;2.60;;;;;;;8.80;100.00;99884.09;4985671;28;20687;-71
2022/09/18 05:25:12;;;;;;;5.60;1.70;;;;;;;8.78;100.00;99885.88;4999685;28;20197;-71
2022/09/18 05:27:39;;;;;;;2.03;1.37;;;;;;;8.72;100.00;99897.28;4983584;28;20266;-72
2022/09/18 05:30:08;;;;;;;6.13;1.43;;;;;;;8.74;100.00;99897.25;4999008;28;20197;-72
2022/09/18 05:32:55;;;;;;;2.93;1.67;;;;;;;8.77;100.00;99897.16;4988018;28;20197;-72
2022/09/18 05:35:23;;;;;;;6.93;1.47;;;;;;;8.77;100.00;99900.59;4977167;28;20620;-72
2022/09/18 05:37:50;;;;;;;2.23;1.30;;;;;;;8.75;100.00;99911.97;4987835;28;20213;-72
2022/09/18 05:40:18;;;;;;;1.67;1.23;;;;;;;8.75;100.00;99904.16;4978674;28;20202;-71
2022/09/18 05:42:46;;;;;;;2.80;1.50;;;;;;;8.77;100.00;99916.19;4986488;28;20211;-73
2022/09/18 05:45:13;;;;;;;3.27;1.40;;;;;;;8.76;100.00;99916.25;4997877;28;20204;-72
2022/09/18 05:47:40;;;;;;;2.73;1.60;;;;;;;8.71;100.00;99903.41;4981243;28;20216;-72
2022/09/18 05:50:10;;;;;;;4.10;1.77;;;;;;;8.72;100.00;99912.88;4980109;28;20243;-72
2022/09/18 05:52:36;;;;;;;1.87;1.17;;;;;;;8.71;100.00;99930.25;4983414;28;20474;-73
2022/09/18 05:55:05;;;;;;;2.00;1.27;;;;;;;8.73;100.00;99924.16;4981827;28;20198;-71
2022/09/18 05:57:31;;;;;;;2.93;1.30;;;;;;;8.74;100.00;99937.06;4987899;28;20221;-73
2022/09/18 05:59:58;;;;;;;3.23;1.40;;;;;;;8.76;100.00;99935.31;4984738;28;20225;-71
2022/09/18 06:02:26;;;;;;;1.93;1.20;;;;;;;8.74;100.00;99931.03;4999688;28;20205;-72
2022/09/18 06:05:00;;;;;;;8.63;1.43;;;;;;;8.79;100.00;99935.19;4987877;28;20222;-71
2022/09/18 06:07:28;;;;;;;6.70;1.70;;;;;;;8.81;100.00;99945.56;4983442;28;20222;-71
2022/09/18 06:09:54;;;;;;;3.70;1.47;;;;;;;8.82;100.00;99940.31;5007613;28;20228;-72
2022/09/18 06:12:23;;;;;;;4.23;1.60;;;;;;;8.86;100.00;99939.31;5006816;28;20335;-73
2022/09/18 06:14:49;;;;;;;4.63;1.50;;;;;;;8.89;100.00;99943.59;4989013;28;20288;-72
2022/09/18 06:17:17;;;;;;;3.80;1.37;;;;;;;8.88;100.00;99950.53;4990154;28;20224;-72
2022/09/18 06:19:44;;;;;;;5.73;1.73;;;;;;;8.85;100.00;99953.22;4988957;28;20668;-71
2022/09/18 06:22:10;;;;;;;3.37;2.10;;;;;;;8.84;100.00;99954.09;4993206;28;20201;-73
2022/09/18 06:24:38;;;;;;;3.70;1.63;;;;;;;8.87;100.00;99950.59;4987577;28;20200;-72
2022/09/18 06:27:07;;;;;;;12.10;2.30;;;;;;;8.86;100.00;99952.31;4986952;28;20288;-72
2022/09/18 06:29:34;;;;;;;4.20;1.40;;;;;;;8.86;100.00;99960.09;4992257;28;20685;-73
2022/09/18 06:32:10;;;;;;;4.27;1.50;;;;;;;8.85;100.00;99958.44;4993051;28;20669;-72
2022/09/18 06:34:38;;;;;;;4.43;1.73;;;;;;;8.76;100.00;99958.69;4980700;28;20201;-73
2022/09/18 06:37:09;;;;;;;6.93;1.50;;;;;;;8.76;100.00;99961.31;4980394;28;20229;-73
2022/09/18 06:39:43;;;;;;;2.67;1.73;;;;;;;8.79;100.00;99962.94;5002599;28;20210;-71
2022/09/18 06:42:17;;;;;;;1.73;1.30;;;;;;;8.79;100.00;99957.75;5002592;28;20269;-72
2022/09/18 06:45:01;;;;;;;6.17;1.80;;;;;;;8.77;100.00;99962.97;5002922;28;20255;-73
2022/09/18 06:47:29;;;;;;;6.77;1.60;;;;;;;8.84;100.00;99969.72;4985347;28;20217;-71
2022/09/18 06:49:55;;;;;;;2.97;1.70;;;;;;;8.84;100.00;99974.06;4982243;28;20228;-72
2022/09/18 06:52:22;;;;;;;3.50;1.77;;;;;;;8.89;100.00;99975.63;5002336;28;20237;-73
2022/09/18 06:54:50;;;;;;;3.17;1.50;;;;;;;8.88;100.00;99973.06;5002737;28;20205;-72
2022/09/18 06:57:30;;;;;;;2.97;1.80;;;;;;;8.86;100.00;99972.25;4975801;28;20691;-73
2022/09/18 06:59:56;;;;;;;2.03;1.53;;;;;;;8.83;100.00;99973.22;4972083;28;20577;-72
2022/09/18 07:02:23;;;;;;;8.73;1.70;;;;;;;8.88;100.00;99970.47;4985662;28;20288;-73
2022/09/18 07:05:19;;;;;;;4.23;1.33;;;;;;;8.89;100.00;99973.03;4973948;28;20201;-72
2022/09/18 07:07:45;;;;;;;6.13;1.70;;;;;;;8.99;100.00;99973.63;4967575;28;20226;-72
2022/09/18 07:10:13;;;;;;;4.97;1.87;;;;;;;9.04;100.00;99971.72;4974713;28;20631;-72
2022/09/18 07:12:47;;;;;;;2.03;1.53;;;;;;;9.06;100.00;99972.53;4986156;28;20978;-73
2022/09/18 07:15:14;;;;;;;3.00;1.43;;;;;;;9.18;100.00;99980.84;4982049;28;20604;-72
2022/09/18 07:17:41;;;;;;;10.87;1.77;;;;;;;9.21;100.00;99978.16;4964452;28;20226;-71
2022/09/18 07:20:09;;;;;;;5.27;1.60;;;;;;;9.23;100.00;99990.22;4972088;28;20201;-72
2022/09/18 07:22:39;;;;;;;4.27;1.63;;;;;;;9.25;100.00;99984.97;4982150;28;20249;-72
2022/09/18 07:25:08;;;;;;;5.40;1.93;;;;;;;9.32;100.00;99981.25;4983694;28;20206;-73
2022/09/18 07:27:36;;;;;;;2.20;1.57;;;;;;;9.31;100.00;99983.94;4976924;28;20229;-72
2022/09/18 07:30:05;;;;;;;14.53;2.20;;;;;;;9.36;100.00;99979.44;4967133;28;20203;-72
2022/09/18 07:32:35;;;;;;;7.57;2.10;;;;;;;9.45;100.00;99987.81;4978493;28;20196;-72
2022/09/18 07:35:01;;;;;;;4.00;1.73;;;;;;;9.50;100.00;99987.66;4980385;28;20315;-72
2022/09/18 07:37:32;;;;;;;5.23;1.80;;;;;;;9.59;100.00;99984.75;4981650;28;20305;-73
2022/09/18 07:40:25;;;;;;;6.93;1.80;;;;;;;9.66;100.00;99995.84;4983444;28;20222;-73
2022/09/18 07:43:10;;;;;;;6.13;2.00;;;;;;;9.72;100.00;99987.81;4985335;28;20217;-72
2022/09/18 07:45:43;;;;;;;2.73;1.70;;;;;;;9.82;100.00;99999.63;4984687;28;20562;-73
2022/09/18 07:48:10;;;;;;;4.57;2.07;;;;;;;9.94;100.00;99995.78;4976473;28;20215;-74
2022/09/18 07:50:42;;;;;;;5.97;2.10;;;;;;;10.00;100.00;99992.94;4980225;28;20662;-73
2022/09/18 07:53:09;;;;;;;3.77;2.00;;;;;;;10.10;100.00;99993.50;4976328;28;20204;-72
2022/09/18 07:55:38;;;;;;;6.73;2.10;;;;;;;10.04;100.00;99994.56;4982901;28;20784;-73
2022/09/18 07:58:07;;;;;;;3.37;1.70;;;;;;;10.19;100.00;99994.94;4962386;28;20314;-72
2022/09/18 08:00:52;;;;;;;4.50;2.10;;;;;;;10.22;100.00;99993.06;5014609;22;20237;-70
2022/09/18 08:03:20;;;;;;;8.27;2.90;;;;;;;10.23;100.00;99992.16;4999757;28;20210;-70
2022/09/18 08:06:06;;;;;;;2.37;1.70;;;;;;;10.29;100.00;99988.50;5019269;28;20759;-70
2022/09/18 08:08:35;;;;;;;3.73;1.90;;;;;;;10.23;100.00;99992.16;5005901;28;20291;-71
2022/09/18 08:11:12;;;;;;;3.20;1.87;;;;;;;10.39;100.00;99987.28;5000209;28;20220;-69
2022/09/18 08:13:54;;;;;;;2.50;1.30;;;;;;;10.59;100.00;100007.44;4997513;28;20213;-70
2022/09/18 08:16:33;;;;;;;5.97;2.13;;;;;;;10.70;100.00;100008.81;5001037;28;20201;-70
2022/09/18 08:19:15;;;;;;;3.50;1.50;;;;;;;10.92;100.00;100001.91;4999530;28;20590;-70
2022/09/18 08:21:45;;;;;;;6.33;1.47;;;;;;;11.13;100.00;100001.97;4999820;28;20203;-70
2022/09/18 08:24:15;;;;;;;2.80;1.67;;;;;;;11.22;100.00;100000.78;5000212;28;20272;-69
2022/09/18 08:26:43;;;;;;;4.70;1.57;;;;;;;11.30;100.00;100006.56;4995850;28;20223;-70
2022/09/18 08:29:17;;;;;;;5.60;1.77;;;;;;;11.25;100.00;100014.56;5000887;28;20519;-70
2022/09/18 08:31:46;;;;;;;4.50;1.63;;;;;;;11.25;100.00;99998.06;4997480;28;20302;-71
2022/09/18 08:34:12;;;;;;;2.27;1.00;;;;;;;11.22;100.00;100012.09;4999060;28;20196;-71
2022/09/18 08:36:39;;;;;;;2.47;0.93;;;;;;;11.24;100.00;100017.22;5000265;28;20203;-71
2022/09/18 08:39:21;;;;;;;2.60;1.17;;;;;;;11.21;100.00;100022.59;4999409;28;20223;-70
2022/09/18 08:42:18;;;;;;;3.87;1.27;;;;;;;11.03;100.00;100018.88;5000449;28;20234;-71
2022/09/18 08:44:51;;;;;;;3.50;1.30;;;;;;;11.06;100.00;100009.19;5021206;28;20738;-70
2022/09/18 08:47:24;;;;;;;2.10;1.13;;;;;;;11.26;100.00;100018.03;5004230;28;20274;-70
2022/09/18 08:49:56;;;;;;;3.10;1.00;;;;;;;11.33;100.00;100022.09;5002067;28;20738;-69
2022/09/18 08:52:27;;;;;;;4.10;1.10;;;;;;;11.46;100.00;100018.09;5002395;28;20206;-71
2022/09/18 08:55:04;;;;;;;4.03;1.70;;;;;;;11.54;100.00;100023.03;4998194;28;20210;-70
2022/09/18 08:58:03;;;;;;;2.50;1.20;;;;;;;11.58;100.00;100021.16;5014723;28;20211;-71
2022/09/18 09:00:40;;;;;;;4.43;1.10;;;;;;;11.36;100.00;100024.56;5000523;28;20327;-71
2022/09/18 09:03:23;;;;;;;6.13;1.37;;;;;;;11.32;100.00;100023.84;5002774;28;20204;-70
2022/09/18 09:05:55;;;;;;;4.07;1.33;;;;;;;11.34;100.00;100029.88;4996486;28;20761;-71
2022/09/18 09:08:39;;;;;;;1.90;0.97;;;;;;;11.46;100.00;100036.38;4999270;28;20570;-70
2022/09/18 09:11:15;;;;;;;3.27;1.20;;;;;;;11.42;100.00;100013.91;4994186;28;20222;-71
2022/09/18 09:14:00;;;;;;;1.97;1.10;;;;;;;11.62;100.00;100010.50;5000821;28;20224;-71
2022/09/18 09:16:40;;;;;;;5.40;1.20;;;;;;;11.72;100.00;100024.03;4998126;28;20377;-71
2022/09/18 09:19:24;;;;;;;5.50;1.03;;;;;;;11.89;100.00;100034.66;4994765;28;20230;-71
2022/09/18 09:21:59;;;;;;;6.60;0.93;;;;;;;11.92;100.00;100024.13;4997190;28;20196;-70
2022/09/18 09:24:31;;;;;;;1.20;0.70;;;;;;;12.01;100.00;100030.69;5002364;28;20210;-71
2022/09/18 09:27:13;;;;;;;4.20;0.80;;;;;;;11.96;100.00;100037.03;5011352;28;20218;-70
2022/09/18 09:30:01;;;;;;;2.67;0.90;;;;;;;11.92;100.00;100038.94;5007192;28;20216;-70
2022/09/18 09:32:44;;;;;;;4.40;0.80;;;;;;;11.86;100.00;100041.78;4994766;28;20199;-70
2022/09/18 09:35:32;;;;;;;3.13;0.87;;;;;;;11.96;100.00;100037.03;4998508;28;20698;-71
2022/09/18 09:38:35;;;;;;;5.60;1.37;;;;;;;11.90;100.00;100038.13;4996715;28;20218;-70
2022/09/18 09:41:12;;;;;;;2.73;0.80;;;;;;;12.21;100.00;100029.03;4997676;28;20707;-70
2022/09/18 09:43:46;;;;;;;4.07;1.00;;;;;;;12.47;100.00;100030.50;4995944;28;20201;-70
2022/09/18 09:46:23;;;;;;;4.97;1.00;;;;;;;12.53;100.00;100032.88;5018574;28;20224;-71
2022/09/18 09:48:56;;;;;;;4.27;0.80;;;;;;;12.25;100.00;100049.75;5004543;28;20701;-71
2022/09/18 09:51:30;;;;;;;4.93;1.03;;;;;;;12.40;100.00;100042.16;4992661;28;20217;-70
2022/09/18 09:54:01;;;;;;;2.17;1.00;;;;;;;12.46;100.00;100037.53;5001475;28;20200;-71
2022/09/18 09:56:35;;;;;;;1.33;0.80;;;;;;;12.38;100.00;100030.91;4992054;28;20213;-69
2022/09/18 09:59:19;;;;;;;5.13;1.10;;;;;;;12.17;100.00;100044.00;4998636;28;20217;-70
2022/09/18 10:02:17;;;;;;;2.43;1.00;;;;;;;12.12;100.00;100043.34;4996206;28;20320;-70
2022/09/18 10:04:52;;;;;;;3.93;0.83;;;;;;;12.29;100.00;100040.88;5007872;28;20222;-70
2022/09/18 10:07:24;;;;;;;4.03;1.00;;;;;;;12.53;100.00;100040.72;4997484;28;20202;-70
2022/09/18 10:09:58;;;;;;;4.53;0.87;;;;;;;12.98;100.00;100033.50;5000606;28;20872;-70
2022/09/18 10:12:31;;;;;;;6.37;2.00;;;;;;;13.02;100.00;100046.38;5000551;28;20219;-70
2022/09/18 10:15:11;;;;;;;1.80;1.10;;;;;;;12.98;100.00;100046.59;4988771;28;20199;-69
2022/09/18 10:17:40;;;;;;;2.20;1.07;;;;;;;12.71;100.00;100046.91;4998361;28;20709;-70
2022/09/18 10:20:15;;;;;;;2.73;0.90;;;;;;;12.45;100.00;100053.28;5005761;28;20224;-71
2022/09/18 10:22:42;;;;;;;2.60;0.87;;;;;;;12.42;100.00;100051.66;4996904;28;20199;-71
2022/09/18 10:25:20;;;;;;;2.83;1.33;;;;;;;12.42;100.00;100048.19;4996649;28;20344;-70
2022/09/18 10:27:47;;;;;;;5.73;1.77;;;;;;;12.53;100.00;100052.97;5013459;28;20196;-71
2022/09/18 10:30:14;;;;;;;5.00;1.50;;;;;;;12.66;100.00;100044.50;4994107;28;20217;-70
2022/09/18 10:32:46;;;;;;;6.07;2.47;;;;;;;12.75;100.00;100051.09;4994351;28;20650;-72
2022/09/18 10:35:42;;;;;;;1.73;1.30;;;;;;;12.50;100.00;100056.53;4991178;28;20721;-71
2022/09/18 10:38:31;;;;;;;3.40;1.50;;;;;;;12.32;100.00;100040.72;5012997;28;20209;-71
2022/09/18 10:41:18;;;;;;;5.07;1.10;;;;;;;12.39;100.00;100041.31;4998258;28;20569;-71
2022/09/18 10:43:57;;;;;;;2.80;1.00;;;;;;;12.57;100.00;100044.06;4991538;28;20205;-71
2022/09/18 10:46:28;;;;;;;3.80;1.03;;;;;;;12.96;100.00;100045.81;5001570;28;20201;-71
2022/09/18 10:48:57;;;;;;;0.70;0.70;;;;;;;13.37;100.00;100040.50;4994233;28;20257;-70
2022/09/18 10:51:27;;;;;;;1.53;0.93;;;;;;;13.54;100.00;100034.44;5003744;28;20758;-71
2022/09/18 10:54:03;;;;;;;3.50;1.83;;;;;;;13.66;100.00;100046.94;4984621;28;20246;-69
2022/09/18 10:56:47;;;;;;;2.17;1.10;;;;;;;13.94;100.00;100041.22;4994284;28;20205;-70
2022/09/18 10:59:33;;;;;;;3.83;1.60;;;;;;;14.17;100.00;100049.69;4987751;28;20218;-68
2022/09/18 11:02:02;;;;;;;2.57;0.77;;;;;;;14.05;100.00;100040.66;4999668;28;20210;-70
2022/09/18 11:04:31;;;;;;;2.80;0.80;;;;;;;13.89;88.24;100037.13;4996497;28;20580;-71
2022/09/18 11:07:02;;;;;;;2.83;1.00;;;;;;;13.90;94.86;100037.06;4999077;28;20227;-68
2022/09/18 11:09:32;;;;;;;1.87;0.70;;;;;;;13.92;92.51;100035.19;5006041;28;20211;-69
2022/09/18 11:12:00;;;;;;;2.63;0.97;;;;;;;13.90;93.78;100029.19;4992683;28;20635;-69
2022/09/18 11:14:38;;;;;;;2.10;1.20;;;;;;;13.86;88.29;100022.41;4989691;28;20679;-69
2022/09/18 11:17:23;;;;;;;1.90;1.00;;;;;;;13.92;96.75;100018.63;4992657;28;20200;-68
2022/09/18 11:19:52;;;;;;;1.50;0.90;;;;;;;13.95;93.56;100023.72;5012348;28;20239;-69
2022/09/18 11:22:34;;;;;;;3.07;0.90;;;;;;;13.86;89.08;100017.19;4998356;28;21164;-69
2022/09/18 11:25:18;;;;;;;1.70;0.77;;;;;;;13.85;96.03;100007.59;5010103;28;20466;-68
2022/09/18 11:27:49;;;;;;;1.67;1.00;;;;;;;14.07;93.93;100010.00;4994825;28;20846;-69
2022/09/18 11:30:21;;;;;;;2.83;0.87;;;;;;;14.29;91.50;100003.66;4997392;28;20322;-70
2022/09/18 11:32:52;;;;;;;2.13;1.00;;;;;;;14.24;87.36;100009.13;5018405;28;20200;-67
2022/09/18 11:35:22;;;;;;;3.37;0.77;;;;;;;14.13;80.78;100008.84;4999181;28;20215;-68
2022/09/18 11:37:54;;;;;;;1.87;0.93;;;;;;;14.28;83.29;100001.97;5000308;28;20753;-70
2022/09/18 11:40:23;;;;;;;1.23;0.63;;;;;;;14.54;73.58;100005.84;4992178;28;20247;-69
2022/09/18 11:42:52;;;;;;;1.17;0.77;;;;;;;14.86;87.57;100004.19;5006159;28;20211;-70
2022/09/18 11:45:34;;;;;;;3.90;1.13;;;;;;;15.03;80.85;100000.63;4993808;28;20292;-69
2022/09/18 11:48:11;;;;;;;2.13;0.90;;;;;;;15.07;83.28;100006.56;5014410;28;20207;-70
2022/09/18 11:50:41;;;;;;;3.30;0.77;;;;;;;15.25;77.58;100009.97;5002628;28;20214;-69
2022/09/18 11:53:17;;;;;;;3.13;1.10;;;;;;;15.03;77.90;100010.31;4994593;28;20197;-70
2022/09/18 11:55:49;;;;;;;3.70;1.00;;;;;;;14.73;77.46;100014.47;5019153;28;20297;-69